sensor_id;sensor_type;location;lat;lon;timestamp;P1;durP1;ratioP1;P2;durP2;ratioP2
59271;SDS011;45043;51.068;7.026;2023-04-25T00:01:48;12.43;;;6.00;;
59271;SDS011;45043;51.068;7.026;2023-04-25T00:04:48;13.37;;;5.67;;
59271;SDS011;45043;51.068;7.026;2023-04-25T00:07:49;16.00;;;6.53;;
59271;SDS011;45043;51.068;7.026;2023-04-25T00:10:50;12.30;;;6.13;;
59271;SDS011;45043;51.068;7.026;2023-04-25T00:13:50;13.80;;;6.30;;
59271;SDS011;45043;51.068;7.026;2023-04-25T00:16:51;9.93;;;5.73;;
59271;SDS011;45043;51.068;7.026;2023-04-25T00:19:51;11.47;;;5.97;;
59271;SDS011;45043;51.068;7.026;2023-04-25T00:22:52;12.50;;;5.67;;
59271;SDS011;45043;51.068;7.026;2023-04-25T00:25:53;13.00;;;6.03;;
59271;SDS011;45043;51.068;7.026;2023-04-25T00:28:53;16.30;;;7.03;;
59271;SDS011;45043;51.068;7.026;2023-04-25T00:31:54;11.93;;;5.83;;
59271;SDS011;45043;51.068;7.026;2023-04-25T00:34:54;12.20;;;6.13;;
59271;SDS011;45043;51.068;7.026;2023-04-25T00:37:56;12.30;;;6.07;;
59271;SDS011;45043;51.068;7.026;2023-04-25T00:40:56;13.27;;;6.50;;
59271;SDS011;45043;51.068;7.026;2023-04-25T00:43:57;16.13;;;6.73;;
59271;SDS011;45043;51.068;7.026;2023-04-25T00:47:01;11.87;;;5.87;;
59271;SDS011;45043;51.068;7.026;2023-04-25T00:50:02;13.50;;;5.97;;
59271;SDS011;45043;51.068;7.026;2023-04-25T00:53:03;8.67;;;5.27;;
59271;SDS011;45043;51.068;7.026;2023-04-25T00:56:03;16.30;;;6.03;;
59271;SDS011;45043;51.068;7.026;2023-04-25T00:59:04;13.63;;;5.87;;
59271;SDS011;45043;51.068;7.026;2023-04-25T01:02:05;14.33;;;7.37;;
59271;SDS011;45043;51.068;7.026;2023-04-25T01:05:05;16.40;;;6.10;;
59271;SDS011;45043;51.068;7.026;2023-04-25T01:08:06;11.47;;;6.33;;
59271;SDS011;45043;51.068;7.026;2023-04-25T01:11:07;15.63;;;6.43;;
59271;SDS011;45043;51.068;7.026;2023-04-25T01:14:07;12.90;;;6.30;;
59271;SDS011;45043;51.068;7.026;2023-04-25T01:17:08;11.13;;;6.07;;
59271;SDS011;45043;51.068;7.026;2023-04-25T01:20:10;15.27;;;5.87;;
59271;SDS011;45043;51.068;7.026;2023-04-25T01:23:11;10.20;;;5.97;;
59271;SDS011;45043;51.068;7.026;2023-04-25T01:26:14;14.10;;;6.27;;
59271;SDS011;45043;51.068;7.026;2023-04-25T01:29:20;13.10;;;6.30;;
59271;SDS011;45043;51.068;7.026;2023-04-25T01:32:20;17.40;;;6.57;;
59271;SDS011;45043;51.068;7.026;2023-04-25T01:35:23;10.47;;;5.03;;
59271;SDS011;45043;51.068;7.026;2023-04-25T01:38:27;12.80;;;6.57;;
59271;SDS011;45043;51.068;7.026;2023-04-25T01:41:28;15.93;;;6.40;;
59271;SDS011;45043;51.068;7.026;2023-04-25T01:44:29;10.90;;;5.30;;
59271;SDS011;45043;51.068;7.026;2023-04-25T01:47:29;12.47;;;5.37;;
59271;SDS011;45043;51.068;7.026;2023-04-25T01:50:30;14.47;;;5.83;;
59271;SDS011;45043;51.068;7.026;2023-04-25T01:53:30;15.87;;;6.37;;
59271;SDS011;45043;51.068;7.026;2023-04-25T01:56:32;13.97;;;5.77;;
59271;SDS011;45043;51.068;7.026;2023-04-25T01:59:34;15.43;;;5.73;;
59271;SDS011;45043;51.068;7.026;2023-04-25T02:02:53;11.10;;;5.23;;
59271;SDS011;45043;51.068;7.026;2023-04-25T02:05:59;14.63;;;6.40;;
59271;SDS011;45043;51.068;7.026;2023-04-25T02:09:01;16.53;;;6.80;;
59271;SDS011;45043;51.068;7.026;2023-04-25T02:12:01;13.23;;;5.37;;
59271;SDS011;45043;51.068;7.026;2023-04-25T02:15:15;15.03;;;6.10;;
59271;SDS011;45043;51.068;7.026;2023-04-25T02:18:25;12.50;;;6.97;;
59271;SDS011;45043;51.068;7.026;2023-04-25T02:21:26;11.37;;;6.17;;
59271;SDS011;45043;51.068;7.026;2023-04-25T02:24:26;12.90;;;4.93;;
59271;SDS011;45043;51.068;7.026;2023-04-25T02:27:30;11.20;;;6.17;;
59271;SDS011;45043;51.068;7.026;2023-04-25T02:30:30;15.30;;;6.60;;
59271;SDS011;45043;51.068;7.026;2023-04-25T02:33:31;13.00;;;5.40;;
59271;SDS011;45043;51.068;7.026;2023-04-25T02:36:31;11.43;;;6.20;;
59271;SDS011;45043;51.068;7.026;2023-04-25T02:39:34;13.00;;;5.97;;
59271;SDS011;45043;51.068;7.026;2023-04-25T02:42:34;13.43;;;5.90;;
59271;SDS011;45043;51.068;7.026;2023-04-25T02:45:35;14.47;;;5.30;;
59271;SDS011;45043;51.068;7.026;2023-04-25T02:48:36;13.17;;;5.60;;
59271;SDS011;45043;51.068;7.026;2023-04-25T02:51:36;9.47;;;5.80;;
59271;SDS011;45043;51.068;7.026;2023-04-25T02:54:37;10.03;;;5.37;;
59271;SDS011;45043;51.068;7.026;2023-04-25T02:57:38;16.93;;;6.17;;
59271;SDS011;45043;51.068;7.026;2023-04-25T03:00:43;10.50;;;5.60;;
59271;SDS011;45043;51.068;7.026;2023-04-25T03:03:44;10.33;;;5.93;;
59271;SDS011;45043;51.068;7.026;2023-04-25T03:06:45;12.57;;;5.77;;
59271;SDS011;45043;51.068;7.026;2023-04-25T03:09:45;12.27;;;5.60;;
59271;SDS011;45043;51.068;7.026;2023-04-25T03:12:46;10.93;;;5.87;;
59271;SDS011;45043;51.068;7.026;2023-04-25T03:15:47;11.40;;;6.00;;
59271;SDS011;45043;51.068;7.026;2023-04-25T03:18:47;10.80;;;5.40;;
59271;SDS011;45043;51.068;7.026;2023-04-25T03:21:48;10.43;;;5.87;;
59271;SDS011;45043;51.068;7.026;2023-04-25T03:24:48;11.90;;;5.73;;
59271;SDS011;45043;51.068;7.026;2023-04-25T03:27:50;12.57;;;6.63;;
59271;SDS011;45043;51.068;7.026;2023-04-25T03:30:50;8.97;;;5.37;;
59271;SDS011;45043;51.068;7.026;2023-04-25T03:33:51;9.83;;;5.37;;
59271;SDS011;45043;51.068;7.026;2023-04-25T03:36:53;9.73;;;5.90;;
59271;SDS011;45043;51.068;7.026;2023-04-25T03:39:54;11.40;;;5.63;;
59271;SDS011;45043;51.068;7.026;2023-04-25T03:42:57;13.73;;;5.83;;
59271;SDS011;45043;51.068;7.026;2023-04-25T03:45:57;9.50;;;5.20;;
59271;SDS011;45043;51.068;7.026;2023-04-25T03:48:59;7.07;;;5.27;;
59271;SDS011;45043;51.068;7.026;2023-04-25T03:52:10;9.43;;;5.43;;
59271;SDS011;45043;51.068;7.026;2023-04-25T03:55:13;9.27;;;5.53;;
59271;SDS011;45043;51.068;7.026;2023-04-25T03:58:13;8.53;;;5.87;;
59271;SDS011;45043;51.068;7.026;2023-04-25T04:01:14;9.17;;;5.43;;
59271;SDS011;45043;51.068;7.026;2023-04-25T04:04:15;10.27;;;5.53;;
59271;SDS011;45043;51.068;7.026;2023-04-25T04:07:16;10.13;;;6.23;;
59271;SDS011;45043;51.068;7.026;2023-04-25T04:10:21;8.33;;;5.50;;
59271;SDS011;45043;51.068;7.026;2023-04-25T04:13:22;12.93;;;5.37;;
59271;SDS011;45043;51.068;7.026;2023-04-25T04:16:23;11.90;;;5.87;;
59271;SDS011;45043;51.068;7.026;2023-04-25T04:19:23;10.30;;;5.90;;
59271;SDS011;45043;51.068;7.026;2023-04-25T04:22:33;8.23;;;5.50;;
59271;SDS011;45043;51.068;7.026;2023-04-25T04:25:39;11.80;;;5.87;;
59271;SDS011;45043;51.068;7.026;2023-04-25T04:29:06;15.43;;;6.30;;
59271;SDS011;45043;51.068;7.026;2023-04-25T04:32:23;10.10;;;7.33;;
59271;SDS011;45043;51.068;7.026;2023-04-25T04:35:26;13.70;;;6.00;;
59271;SDS011;45043;51.068;7.026;2023-04-25T04:38:27;11.47;;;6.20;;
59271;SDS011;45043;51.068;7.026;2023-04-25T04:41:32;11.43;;;5.30;;
59271;SDS011;45043;51.068;7.026;2023-04-25T04:44:58;13.00;;;5.93;;
59271;SDS011;45043;51.068;7.026;2023-04-25T04:48:21;9.83;;;5.47;;
59271;SDS011;45043;51.068;7.026;2023-04-25T04:51:34;12.07;;;5.13;;
59271;SDS011;45043;51.068;7.026;2023-04-25T04:54:42;10.70;;;5.27;;
59271;SDS011;45043;51.068;7.026;2023-04-25T04:58:06;11.67;;;6.17;;
59271;SDS011;45043;51.068;7.026;2023-04-25T05:01:18;10.97;;;5.40;;
59271;SDS011;45043;51.068;7.026;2023-04-25T05:04:47;12.87;;;5.83;;
59271;SDS011;45043;51.068;7.026;2023-04-25T05:08:10;14.03;;;6.13;;
59271;SDS011;45043;51.068;7.026;2023-04-25T05:11:36;16.00;;;5.27;;
59271;SDS011;45043;51.068;7.026;2023-04-25T05:14:56;15.07;;;6.27;;
59271;SDS011;45043;51.068;7.026;2023-04-25T05:18:27;16.40;;;6.13;;
59271;SDS011;45043;51.068;7.026;2023-04-25T05:21:38;15.07;;;4.63;;
59271;SDS011;45043;51.068;7.026;2023-04-25T05:24:39;12.90;;;5.30;;
59271;SDS011;45043;51.068;7.026;2023-04-25T05:27:56;11.90;;;5.40;;
59271;SDS011;45043;51.068;7.026;2023-04-25T05:31:18;11.50;;;5.67;;
59271;SDS011;45043;51.068;7.026;2023-04-25T05:34:26;13.80;;;5.53;;
59271;SDS011;45043;51.068;7.026;2023-04-25T05:37:36;11.67;;;5.10;;
59271;SDS011;45043;51.068;7.026;2023-04-25T05:40:44;11.13;;;5.73;;
59271;SDS011;45043;51.068;7.026;2023-04-25T05:43:50;12.37;;;5.20;;
59271;SDS011;45043;51.068;7.026;2023-04-25T05:47:08;11.03;;;5.40;;
59271;SDS011;45043;51.068;7.026;2023-04-25T05:50:41;13.30;;;5.23;;
59271;SDS011;45043;51.068;7.026;2023-04-25T05:53:53;12.57;;;5.20;;
59271;SDS011;45043;51.068;7.026;2023-04-25T05:56:56;15.20;;;5.67;;
59271;SDS011;45043;51.068;7.026;2023-04-25T05:59:57;18.00;;;5.67;;
59271;SDS011;45043;51.068;7.026;2023-04-25T06:03:13;16.53;;;5.93;;
59271;SDS011;45043;51.068;7.026;2023-04-25T06:06:18;17.77;;;5.53;;
59271;SDS011;45043;51.068;7.026;2023-04-25T06:09:20;14.60;;;5.93;;
59271;SDS011;45043;51.068;7.026;2023-04-25T06:12:21;14.87;;;6.73;;
59271;SDS011;45043;51.068;7.026;2023-04-25T06:15:23;13.40;;;5.37;;
59271;SDS011;45043;51.068;7.026;2023-04-25T06:18:24;16.00;;;5.30;;
59271;SDS011;45043;51.068;7.026;2023-04-25T06:21:24;15.70;;;5.77;;
59271;SDS011;45043;51.068;7.026;2023-04-25T06:24:26;13.13;;;5.00;;
59271;SDS011;45043;51.068;7.026;2023-04-25T06:27:27;13.60;;;5.07;;
59271;SDS011;45043;51.068;7.026;2023-04-25T06:30:28;23.27;;;5.67;;
59271;SDS011;45043;51.068;7.026;2023-04-25T06:33:35;13.30;;;5.30;;
59271;SDS011;45043;51.068;7.026;2023-04-25T06:36:37;13.77;;;5.20;;
59271;SDS011;45043;51.068;7.026;2023-04-25T06:39:41;16.73;;;4.93;;
59271;SDS011;45043;51.068;7.026;2023-04-25T06:42:42;13.63;;;5.17;;
59271;SDS011;45043;51.068;7.026;2023-04-25T06:46:00;15.60;;;4.67;;
59271;SDS011;45043;51.068;7.026;2023-04-25T06:49:03;13.97;;;5.90;;
59271;SDS011;45043;51.068;7.026;2023-04-25T06:52:04;19.10;;;6.20;;
59271;SDS011;45043;51.068;7.026;2023-04-25T06:55:04;15.73;;;5.40;;
59271;SDS011;45043;51.068;7.026;2023-04-25T06:58:25;16.67;;;5.73;;
59271;SDS011;45043;51.068;7.026;2023-04-25T07:01:29;19.83;;;7.13;;
59271;SDS011;45043;51.068;7.026;2023-04-25T07:04:31;14.13;;;5.70;;
59271;SDS011;45043;51.068;7.026;2023-04-25T07:07:32;14.57;;;6.23;;
59271;SDS011;45043;51.068;7.026;2023-04-25T07:10:33;16.07;;;6.93;;
59271;SDS011;45043;51.068;7.026;2023-04-25T07:13:33;17.87;;;5.63;;
59271;SDS011;45043;51.068;7.026;2023-04-25T07:16:34;13.07;;;6.30;;
59271;SDS011;45043;51.068;7.026;2023-04-25T07:19:36;25.27;;;6.67;;
59271;SDS011;45043;51.068;7.026;2023-04-25T07:22:38;21.63;;;6.83;;
59271;SDS011;45043;51.068;7.026;2023-04-25T07:25:39;15.67;;;6.17;;
59271;SDS011;45043;51.068;7.026;2023-04-25T07:28:40;16.50;;;6.70;;
59271;SDS011;45043;51.068;7.026;2023-04-25T07:31:41;14.47;;;5.10;;
59271;SDS011;45043;51.068;7.026;2023-04-25T07:34:42;13.43;;;6.20;;
59271;SDS011;45043;51.068;7.026;2023-04-25T07:37:42;12.30;;;4.60;;
59271;SDS011;45043;51.068;7.026;2023-04-25T07:40:52;13.73;;;4.83;;
59271;SDS011;45043;51.068;7.026;2023-04-25T07:43:53;16.67;;;5.33;;
59271;SDS011;45043;51.068;7.026;2023-04-25T07:46:54;12.77;;;4.57;;
59271;SDS011;45043;51.068;7.026;2023-04-25T07:49:55;20.10;;;5.27;;
59271;SDS011;45043;51.068;7.026;2023-04-25T07:52:58;9.83;;;4.30;;
59271;SDS011;45043;51.068;7.026;2023-04-25T07:56:06;10.77;;;4.20;;
59271;SDS011;45043;51.068;7.026;2023-04-25T07:59:11;11.87;;;4.90;;
59271;SDS011;45043;51.068;7.026;2023-04-25T08:02:12;13.20;;;5.00;;
59271;SDS011;45043;51.068;7.026;2023-04-25T08:05:13;8.80;;;4.33;;
59271;SDS011;45043;51.068;7.026;2023-04-25T08:08:18;6.90;;;4.20;;
59271;SDS011;45043;51.068;7.026;2023-04-25T08:11:19;12.53;;;4.83;;
59271;SDS011;45043;51.068;7.026;2023-04-25T08:14:20;13.50;;;3.97;;
59271;SDS011;45043;51.068;7.026;2023-04-25T08:17:22;9.03;;;4.30;;
59271;SDS011;45043;51.068;7.026;2023-04-25T08:20:23;18.73;;;4.23;;
59271;SDS011;45043;51.068;7.026;2023-04-25T08:23:26;8.70;;;3.70;;
59271;SDS011;45043;51.068;7.026;2023-04-25T09:21:17;10.53;;;4.07;;
59271;SDS011;45043;51.068;7.026;2023-04-25T09:24:37;9.63;;;3.30;;
59271;SDS011;45043;51.068;7.026;2023-04-25T09:27:50;9.50;;;3.93;;
59271;SDS011;45043;51.068;7.026;2023-04-25T09:30:56;9.27;;;4.03;;
59271;SDS011;45043;51.068;7.026;2023-04-25T09:34:06;7.90;;;3.43;;
59271;SDS011;45043;51.068;7.026;2023-04-25T09:37:19;8.40;;;3.67;;
59271;SDS011;45043;51.068;7.026;2023-04-25T09:40:43;8.07;;;3.30;;
59271;SDS011;45043;51.068;7.026;2023-04-25T09:43:52;6.50;;;3.53;;
59271;SDS011;45043;51.068;7.026;2023-04-25T09:47:00;9.57;;;3.90;;
59271;SDS011;45043;51.068;7.026;2023-04-25T09:50:04;6.33;;;3.10;;
59271;SDS011;45043;51.068;7.026;2023-04-25T09:53:17;7.30;;;3.77;;
59271;SDS011;45043;51.068;7.026;2023-04-25T09:56:37;8.70;;;3.17;;
59271;SDS011;45043;51.068;7.026;2023-04-25T09:59:47;8.63;;;3.43;;
59271;SDS011;45043;51.068;7.026;2023-04-25T10:02:50;10.43;;;3.93;;
59271;SDS011;45043;51.068;7.026;2023-04-25T10:06:19;7.20;;;3.07;;
59271;SDS011;45043;51.068;7.026;2023-04-25T10:09:25;6.83;;;3.37;;
59271;SDS011;45043;51.068;7.026;2023-04-25T10:12:27;8.70;;;3.50;;
59271;SDS011;45043;51.068;7.026;2023-04-25T10:15:28;5.87;;;3.43;;
59271;SDS011;45043;51.068;7.026;2023-04-25T10:18:31;11.13;;;4.37;;
59271;SDS011;45043;51.068;7.026;2023-04-25T10:21:33;7.17;;;3.97;;
59271;SDS011;45043;51.068;7.026;2023-04-25T10:24:35;13.43;;;5.60;;
59271;SDS011;45043;51.068;7.026;2023-04-25T10:27:38;10.30;;;4.70;;
59271;SDS011;45043;51.068;7.026;2023-04-25T10:30:59;11.73;;;5.10;;
59271;SDS011;45043;51.068;7.026;2023-04-25T10:34:04;10.57;;;4.33;;
59271;SDS011;45043;51.068;7.026;2023-04-25T10:37:05;7.43;;;3.70;;
59271;SDS011;45043;51.068;7.026;2023-04-25T10:40:09;6.33;;;3.53;;
59271;SDS011;45043;51.068;7.026;2023-04-25T10:46:39;5.37;;;2.90;;
59271;SDS011;45043;51.068;7.026;2023-04-25T10:49:41;8.07;;;3.23;;
59271;SDS011;45043;51.068;7.026;2023-04-25T10:52:45;8.07;;;3.07;;
59271;SDS011;45043;51.068;7.026;2023-04-25T10:55:49;8.00;;;3.00;;
59271;SDS011;45043;51.068;7.026;2023-04-25T10:58:50;7.40;;;3.10;;
59271;SDS011;45043;51.068;7.026;2023-04-25T11:01:51;4.53;;;3.03;;
59271;SDS011;45043;51.068;7.026;2023-04-25T11:04:54;5.77;;;2.30;;
59271;SDS011;45043;51.068;7.026;2023-04-25T11:07:55;7.03;;;2.60;;
59271;SDS011;45043;51.068;7.026;2023-04-25T11:11:02;8.43;;;3.00;;
59271;SDS011;45043;51.068;7.026;2023-04-25T11:14:03;7.50;;;2.40;;
59271;SDS011;45043;51.068;7.026;2023-04-25T11:17:03;5.33;;;3.23;;
59271;SDS011;45043;51.068;7.026;2023-04-25T11:20:06;7.43;;;3.40;;
59271;SDS011;45043;51.068;7.026;2023-04-25T11:23:11;6.17;;;2.50;;
59271;SDS011;45043;51.068;7.026;2023-04-25T11:26:12;5.73;;;3.30;;
59271;SDS011;45043;51.068;7.026;2023-04-25T11:29:16;4.07;;;2.50;;
59271;SDS011;45043;51.068;7.026;2023-04-25T11:32:17;4.83;;;2.30;;
59271;SDS011;45043;51.068;7.026;2023-04-25T11:35:18;5.17;;;2.37;;
59271;SDS011;45043;51.068;7.026;2023-04-25T11:38:20;3.57;;;2.30;;
59271;SDS011;45043;51.068;7.026;2023-04-25T11:41:21;4.37;;;2.27;;
59271;SDS011;45043;51.068;7.026;2023-04-25T11:44:22;4.33;;;2.63;;
59271;SDS011;45043;51.068;7.026;2023-04-25T11:47:27;4.50;;;2.27;;
59271;SDS011;45043;51.068;7.026;2023-04-25T11:50:30;5.30;;;2.50;;
59271;SDS011;45043;51.068;7.026;2023-04-25T11:53:30;2.17;;;1.93;;
59271;SDS011;45043;51.068;7.026;2023-04-25T11:56:31;4.57;;;2.30;;
59271;SDS011;45043;51.068;7.026;2023-04-25T11:59:32;4.43;;;2.33;;
59271;SDS011;45043;51.068;7.026;2023-04-25T12:02:35;3.57;;;2.33;;
59271;SDS011;45043;51.068;7.026;2023-04-25T12:05:36;4.90;;;3.40;;
59271;SDS011;45043;51.068;7.026;2023-04-25T12:08:58;4.00;;;2.03;;
59271;SDS011;45043;51.068;7.026;2023-04-25T12:11:59;4.90;;;2.47;;
59271;SDS011;45043;51.068;7.026;2023-04-25T12:15:13;4.60;;;2.50;;
59271;SDS011;45043;51.068;7.026;2023-04-25T12:18:26;5.80;;;2.37;;
59271;SDS011;45043;51.068;7.026;2023-04-25T12:21:28;4.23;;;2.20;;
59271;SDS011;45043;51.068;7.026;2023-04-25T12:24:32;6.17;;;2.60;;
59271;SDS011;45043;51.068;7.026;2023-04-25T12:27:35;5.57;;;2.60;;
59271;SDS011;45043;51.068;7.026;2023-04-25T12:34:03;3.33;;;2.07;;
59271;SDS011;45043;51.068;7.026;2023-04-25T12:37:03;6.23;;;2.47;;
59271;SDS011;45043;51.068;7.026;2023-04-25T12:40:05;3.80;;;2.53;;
59271;SDS011;45043;51.068;7.026;2023-04-25T12:43:06;5.50;;;2.87;;
59271;SDS011;45043;51.068;7.026;2023-04-25T12:46:07;3.87;;;2.40;;
59271;SDS011;45043;51.068;7.026;2023-04-25T12:49:08;4.97;;;2.40;;
59271;SDS011;45043;51.068;7.026;2023-04-25T12:52:09;6.53;;;2.63;;
59271;SDS011;45043;51.068;7.026;2023-04-25T12:55:10;5.27;;;2.77;;
59271;SDS011;45043;51.068;7.026;2023-04-25T12:58:10;6.93;;;3.10;;
59271;SDS011;45043;51.068;7.026;2023-04-25T13:01:10;5.13;;;2.53;;
59271;SDS011;45043;51.068;7.026;2023-04-25T13:04:13;5.90;;;2.80;;
59271;SDS011;45043;51.068;7.026;2023-04-25T13:07:13;5.83;;;2.70;;
59271;SDS011;45043;51.068;7.026;2023-04-25T13:10:13;5.33;;;2.90;;
59271;SDS011;45043;51.068;7.026;2023-04-25T13:13:14;4.90;;;2.93;;
59271;SDS011;45043;51.068;7.026;2023-04-25T13:16:16;6.23;;;4.20;;
59271;SDS011;45043;51.068;7.026;2023-04-25T13:19:17;10.00;;;3.43;;
59271;SDS011;45043;51.068;7.026;2023-04-25T13:22:17;7.17;;;3.60;;
59271;SDS011;45043;51.068;7.026;2023-04-25T13:25:20;5.63;;;3.27;;
59271;SDS011;45043;51.068;7.026;2023-04-25T13:28:22;7.07;;;4.63;;
59271;SDS011;45043;51.068;7.026;2023-04-25T13:31:23;20.20;;;13.23;;
59271;SDS011;45043;51.068;7.026;2023-04-25T13:34:24;13.73;;;7.50;;
59271;SDS011;45043;51.068;7.026;2023-04-25T13:37:25;11.47;;;6.00;;
59271;SDS011;45043;51.068;7.026;2023-04-25T13:40:25;12.90;;;5.73;;
59271;SDS011;45043;51.068;7.026;2023-04-25T13:43:27;8.60;;;4.40;;
59271;SDS011;45043;51.068;7.026;2023-04-25T13:46:27;8.83;;;3.93;;
59271;SDS011;45043;51.068;7.026;2023-04-25T13:49:28;8.33;;;4.40;;
59271;SDS011;45043;51.068;7.026;2023-04-25T13:52:28;9.37;;;3.50;;
59271;SDS011;45043;51.068;7.026;2023-04-25T13:55:29;5.63;;;3.30;;
59271;SDS011;45043;51.068;7.026;2023-04-25T13:58:30;5.53;;;3.20;;
59271;SDS011;45043;51.068;7.026;2023-04-25T14:01:30;6.47;;;3.13;;
59271;SDS011;45043;51.068;7.026;2023-04-25T14:04:34;6.60;;;3.20;;
59271;SDS011;45043;51.068;7.026;2023-04-25T14:07:35;5.43;;;3.50;;
59271;SDS011;45043;51.068;7.026;2023-04-25T14:10:36;3.97;;;2.80;;
59271;SDS011;45043;51.068;7.026;2023-04-25T14:13:37;5.50;;;3.00;;
59271;SDS011;45043;51.068;7.026;2023-04-25T14:16:38;5.70;;;3.00;;
59271;SDS011;45043;51.068;7.026;2023-04-25T14:19:39;6.20;;;3.23;;
59271;SDS011;45043;51.068;7.026;2023-04-25T14:22:43;4.33;;;3.50;;
59271;SDS011;45043;51.068;7.026;2023-04-25T14:25:43;4.33;;;2.83;;
59271;SDS011;45043;51.068;7.026;2023-04-25T14:28:44;5.30;;;2.07;;
59271;SDS011;45043;51.068;7.026;2023-04-25T14:31:44;3.47;;;2.07;;
59271;SDS011;45043;51.068;7.026;2023-04-25T14:34:47;3.63;;;2.10;;
59271;SDS011;45043;51.068;7.026;2023-04-25T14:37:48;3.07;;;2.30;;
59271;SDS011;45043;51.068;7.026;2023-04-25T14:40:49;2.93;;;2.20;;
59271;SDS011;45043;51.068;7.026;2023-04-25T14:43:50;3.47;;;2.30;;
59271;SDS011;45043;51.068;7.026;2023-04-25T14:46:50;3.23;;;2.10;;
59271;SDS011;45043;51.068;7.026;2023-04-25T14:49:52;7.17;;;2.70;;
59271;SDS011;45043;51.068;7.026;2023-04-25T14:52:54;5.20;;;2.97;;
59271;SDS011;45043;51.068;7.026;2023-04-25T14:55:58;6.83;;;2.70;;
59271;SDS011;45043;51.068;7.026;2023-04-25T14:58:59;4.53;;;2.60;;
59271;SDS011;45043;51.068;7.026;2023-04-25T15:01:59;5.50;;;2.60;;
59271;SDS011;45043;51.068;7.026;2023-04-25T15:05:00;4.77;;;2.80;;
59271;SDS011;45043;51.068;7.026;2023-04-25T15:08:01;5.33;;;3.43;;
59271;SDS011;45043;51.068;7.026;2023-04-25T15:11:02;6.07;;;3.40;;
59271;SDS011;45043;51.068;7.026;2023-04-25T15:14:05;5.53;;;2.73;;
59271;SDS011;45043;51.068;7.026;2023-04-25T15:17:06;10.13;;;2.47;;
59271;SDS011;45043;51.068;7.026;2023-04-25T15:20:08;6.07;;;2.50;;
59271;SDS011;45043;51.068;7.026;2023-04-25T15:23:13;4.83;;;3.00;;
59271;SDS011;45043;51.068;7.026;2023-04-25T15:26:14;7.93;;;4.03;;
59271;SDS011;45043;51.068;7.026;2023-04-25T15:29:14;5.43;;;2.60;;
59271;SDS011;45043;51.068;7.026;2023-04-25T15:32:15;4.27;;;2.17;;
59271;SDS011;45043;51.068;7.026;2023-04-25T15:35:16;5.87;;;3.07;;
59271;SDS011;45043;51.068;7.026;2023-04-25T15:38:16;6.60;;;2.57;;
59271;SDS011;45043;51.068;7.026;2023-04-25T15:41:17;5.30;;;2.50;;
59271;SDS011;45043;51.068;7.026;2023-04-25T15:44:17;3.63;;;2.20;;
59271;SDS011;45043;51.068;7.026;2023-04-25T15:47:18;5.23;;;2.37;;
59271;SDS011;45043;51.068;7.026;2023-04-25T15:50:18;5.60;;;2.67;;
59271;SDS011;45043;51.068;7.026;2023-04-25T15:53:19;5.43;;;2.57;;
59271;SDS011;45043;51.068;7.026;2023-04-25T15:56:20;4.27;;;2.53;;
59271;SDS011;45043;51.068;7.026;2023-04-25T15:59:20;5.33;;;2.50;;
59271;SDS011;45043;51.068;7.026;2023-04-25T16:02:21;4.53;;;2.83;;
59271;SDS011;45043;51.068;7.026;2023-04-25T16:05:22;3.23;;;2.40;;
59271;SDS011;45043;51.068;7.026;2023-04-25T16:08:22;5.13;;;2.83;;
59271;SDS011;45043;51.068;7.026;2023-04-25T16:11:22;7.10;;;2.60;;
59271;SDS011;45043;51.068;7.026;2023-04-25T16:14:23;4.90;;;2.53;;
59271;SDS011;45043;51.068;7.026;2023-04-25T16:17:24;4.47;;;2.47;;
59271;SDS011;45043;51.068;7.026;2023-04-25T16:20:27;5.00;;;2.70;;
59271;SDS011;45043;51.068;7.026;2023-04-25T16:23:27;5.53;;;2.90;;
59271;SDS011;45043;51.068;7.026;2023-04-25T16:26:28;3.37;;;2.60;;
59271;SDS011;45043;51.068;7.026;2023-04-25T16:29:28;7.93;;;4.37;;
59271;SDS011;45043;51.068;7.026;2023-04-25T16:32:29;6.33;;;2.53;;
59271;SDS011;45043;51.068;7.026;2023-04-25T16:35:29;7.70;;;5.30;;
59271;SDS011;45043;51.068;7.026;2023-04-25T16:38:31;10.07;;;5.27;;
59271;SDS011;45043;51.068;7.026;2023-04-25T16:41:32;5.77;;;5.27;;
59271;SDS011;45043;51.068;7.026;2023-04-25T16:44:33;6.93;;;5.50;;
59271;SDS011;45043;51.068;7.026;2023-04-25T16:47:33;5.73;;;5.10;;
59271;SDS011;45043;51.068;7.026;2023-04-25T16:50:35;5.93;;;5.37;;
59271;SDS011;45043;51.068;7.026;2023-04-25T16:53:39;3.00;;;2.50;;
59271;SDS011;45043;51.068;7.026;2023-04-25T16:56:40;5.90;;;2.17;;
59271;SDS011;45043;51.068;7.026;2023-04-25T16:59:41;2.43;;;2.00;;
59271;SDS011;45043;51.068;7.026;2023-04-25T17:02:41;6.07;;;2.30;;
59271;SDS011;45043;51.068;7.026;2023-04-25T17:05:42;5.27;;;1.90;;
59271;SDS011;45043;51.068;7.026;2023-04-25T17:08:43;5.13;;;2.40;;
59271;SDS011;45043;51.068;7.026;2023-04-25T17:11:44;4.30;;;3.67;;
59271;SDS011;45043;51.068;7.026;2023-04-25T17:14:45;6.63;;;5.97;;
59271;SDS011;45043;51.068;7.026;2023-04-25T17:17:46;4.93;;;3.20;;
59271;SDS011;45043;51.068;7.026;2023-04-25T17:20:46;6.07;;;2.87;;
59271;SDS011;45043;51.068;7.026;2023-04-25T17:23:47;5.13;;;4.73;;
59271;SDS011;45043;51.068;7.026;2023-04-25T17:26:47;3.87;;;2.43;;
59271;SDS011;45043;51.068;7.026;2023-04-25T17:29:48;4.50;;;4.10;;
59271;SDS011;45043;51.068;7.026;2023-04-25T17:32:48;7.03;;;4.53;;
59271;SDS011;45043;51.068;7.026;2023-04-25T17:35:49;4.23;;;3.80;;
59271;SDS011;45043;51.068;7.026;2023-04-25T17:38:49;4.43;;;3.97;;
59271;SDS011;45043;51.068;7.026;2023-04-25T17:41:49;5.20;;;3.53;;
59271;SDS011;45043;51.068;7.026;2023-04-25T17:44:50;4.40;;;2.77;;
59271;SDS011;45043;51.068;7.026;2023-04-25T17:47:51;4.73;;;4.23;;
59271;SDS011;45043;51.068;7.026;2023-04-25T17:50:52;5.17;;;3.43;;
59271;SDS011;45043;51.068;7.026;2023-04-25T17:53:52;5.00;;;3.33;;
59271;SDS011;45043;51.068;7.026;2023-04-25T17:56:53;7.20;;;2.50;;
59271;SDS011;45043;51.068;7.026;2023-04-25T17:59:53;3.97;;;2.20;;
59271;SDS011;45043;51.068;7.026;2023-04-25T18:02:56;7.43;;;2.40;;
59271;SDS011;45043;51.068;7.026;2023-04-25T18:05:57;5.77;;;2.90;;
59271;SDS011;45043;51.068;7.026;2023-04-25T18:08:57;3.93;;;2.20;;
59271;SDS011;45043;51.068;7.026;2023-04-25T18:11:58;2.67;;;1.90;;
59271;SDS011;45043;51.068;7.026;2023-04-25T18:15:00;7.63;;;2.30;;
59271;SDS011;45043;51.068;7.026;2023-04-25T18:18:01;3.90;;;2.30;;
59271;SDS011;45043;51.068;7.026;2023-04-25T18:21:08;5.73;;;2.50;;
59271;SDS011;45043;51.068;7.026;2023-04-25T18:24:10;6.47;;;2.00;;
59271;SDS011;45043;51.068;7.026;2023-04-25T18:27:12;3.33;;;2.47;;
59271;SDS011;45043;51.068;7.026;2023-04-25T18:30:13;3.23;;;2.07;;
59271;SDS011;45043;51.068;7.026;2023-04-25T18:33:13;6.63;;;2.17;;
59271;SDS011;45043;51.068;7.026;2023-04-25T18:36:13;4.33;;;2.33;;
59271;SDS011;45043;51.068;7.026;2023-04-25T18:39:14;3.20;;;1.67;;
59271;SDS011;45043;51.068;7.026;2023-04-25T18:42:15;2.80;;;1.63;;
59271;SDS011;45043;51.068;7.026;2023-04-25T18:45:16;5.30;;;2.60;;
59271;SDS011;45043;51.068;7.026;2023-04-25T18:48:16;4.60;;;2.50;;
59271;SDS011;45043;51.068;7.026;2023-04-25T18:51:17;4.43;;;2.70;;
59271;SDS011;45043;51.068;7.026;2023-04-25T18:54:18;4.77;;;2.10;;
59271;SDS011;45043;51.068;7.026;2023-04-25T18:57:19;6.03;;;2.30;;
59271;SDS011;45043;51.068;7.026;2023-04-25T19:00:20;3.63;;;2.27;;
59271;SDS011;45043;51.068;7.026;2023-04-25T19:03:21;3.97;;;2.73;;
59271;SDS011;45043;51.068;7.026;2023-04-25T19:06:22;5.00;;;2.67;;
59271;SDS011;45043;51.068;7.026;2023-04-25T19:09:23;4.00;;;2.47;;
59271;SDS011;45043;51.068;7.026;2023-04-25T19:12:24;6.63;;;2.03;;
59271;SDS011;45043;51.068;7.026;2023-04-25T19:15:25;5.37;;;2.40;;
59271;SDS011;45043;51.068;7.026;2023-04-25T19:18:25;5.03;;;2.37;;